Time;durP1;ratioP1;P1;durP2;ratioP2;P2;SDS_P1;SDS_P2;PMS_P1;PMS_P2;Temp;Humidity;BMP_temperature;BMP_pressure;BME280_temperature;BME280_humidity;BME280_pressure;Samples;Min_cycle;Max_cycle;Signal;HPM_P1;HPM_P2
2022/08/25 00:00:26;;;;;;;5.88;3.47;;;;;;;21.72;64.84;101410.47;5002964;28;20269;-73
2022/08/25 00:02:53;;;;;;;7.75;3.03;;;;;;;21.71;64.71;101403.56;5002856;28;20552;-74
2022/08/25 00:05:19;;;;;;;6.10;2.67;;;;;;;21.66;64.44;101404.22;5003716;28;20042;-74
2022/08/25 00:07:44;;;;;;;7.22;3.47;;;;;;;21.65;64.20;101405.22;4986883;28;20038;-74
2022/08/25 00:10:10;;;;;;;4.28;2.60;;;;;;;21.61;63.92;101409.31;5006927;28;20045;-74
2022/08/25 00:12:35;;;;;;;5.55;3.30;;;;;;;21.57;63.36;101414.22;5022149;28;20038;-75
2022/08/25 00:15:01;;;;;;;4.47;2.70;;;;;;;21.56;63.33;101409.16;5018839;28;20042;-74
2022/08/25 00:17:27;;;;;;;6.93;3.67;;;;;;;21.52;62.57;101407.97;5024900;28;20037;-74
2022/08/25 00:19:52;;;;;;;4.93;2.75;;;;;;;21.56;61.06;101415.22;5020859;28;20025;-74
2022/08/25 00:22:17;;;;;;;7.28;3.33;;;;;;;21.57;60.24;101411.56;5022133;28;20045;-73
2022/08/25 00:24:43;;;;;;;9.93;3.25;;;;;;;21.65;59.36;101409.69;5003026;28;20029;-74
2022/08/25 00:27:11;;;;;;;7.25;2.80;;;;;;;21.57;59.58;101416.84;5003969;28;20092;-74
2022/08/25 00:29:37;;;;;;;7.20;2.95;;;;;;;21.53;60.22;101417.47;5022833;28;20112;-74
2022/08/25 00:32:04;;;;;;;4.22;2.88;;;;;;;21.51;60.76;101419.53;5021885;28;20041;-74
2022/08/25 00:34:33;;;;;;;4.60;2.80;;;;;;;21.51;61.09;101416.88;5023904;28;20052;-74
2022/08/25 00:36:59;;;;;;;3.45;2.60;;;;;;;21.48;61.35;101418.13;5024890;28;20041;-74
2022/08/25 00:39:26;;;;;;;6.78;2.90;;;;;;;21.48;61.82;101414.69;5024887;28;20083;-74
2022/08/25 00:41:55;;;;;;;5.00;2.75;;;;;;;21.46;62.21;101422.00;5009099;28;20025;-74
2022/08/25 00:44:22;;;;;;;4.32;2.78;;;;;;;21.43;62.60;101423.19;5022904;28;20033;-74
2022/08/25 00:46:51;;;;;;;4.55;2.50;;;;;;;21.39;62.31;101425.47;5008940;28;20422;-74
2022/08/25 00:49:27;;;;;;;7.25;3.20;;;;;;;21.36;60.15;101420.63;5005968;28;20087;-73
2022/08/25 00:52:07;;;;;;;5.30;2.72;;;;;;;21.32;59.60;101424.72;5021894;28;20069;-73
2022/08/25 00:55:01;;;;;;;5.93;2.63;;;;;;;21.33;59.56;101421.03;5003674;28;20044;-74
2022/08/25 00:57:31;;;;;;;3.92;2.40;;;;;;;21.35;59.71;101423.47;5024992;28;20017;-74
2022/08/25 00:59:57;;;;;;;5.47;2.63;;;;;;;21.33;59.25;101428.16;5003292;28;20026;-74
2022/08/25 01:02:22;;;;;;;5.10;2.85;;;;;;;21.34;59.19;101427.94;5007626;28;20060;-74
2022/08/25 01:04:48;;;;;;;5.20;2.55;;;;;;;21.33;57.73;101422.88;5020301;28;20469;-73
2022/08/25 01:09:42;;;;;;;4.18;2.30;;;;;;;21.32;57.34;101426.53;4990255;28;20084;-74
2022/08/25 01:12:09;;;;;;;3.80;2.50;;;;;;;21.26;57.99;101425.53;5005554;28;20038;-74
2022/08/25 01:14:36;;;;;;;7.45;2.88;;;;;;;21.26;58.32;101419.47;5006751;28;20033;-74
2022/08/25 01:17:02;;;;;;;3.38;1.98;;;;;;;21.26;58.54;101419.47;5006172;28;20478;-73
2022/08/25 01:19:28;;;;;;;3.22;2.28;;;;;;;21.25;58.58;101421.31;4987626;28;20036;-72
2022/08/25 01:21:54;;;;;;;5.10;2.72;;;;;;;21.23;58.81;101418.06;5005586;28;20029;-74
2022/08/25 01:25:12;;;;;;;4.03;2.95;;;;;;;21.23;59.46;101419.88;5003923;28;20367;-72
2022/08/25 01:27:38;;;;;;;4.25;2.63;;;;;;;21.19;59.55;101415.03;4978678;28;20545;-73
2022/08/25 01:30:04;;;;;;;6.65;2.97;;;;;;;21.18;59.90;101421.31;5011102;28;20030;-74
2022/08/25 01:32:33;;;;;;;6.82;2.65;;;;;;;21.15;60.42;101421.75;4989976;28;20038;-73
2022/08/25 01:34:59;;;;;;;4.65;2.60;;;;;;;21.11;60.51;101427.66;5003296;28;20041;-73
2022/08/25 01:37:24;;;;;;;5.13;2.88;;;;;;;21.08;61.18;101430.69;5004530;28;20033;-74
2022/08/25 01:39:50;;;;;;;6.13;3.15;;;;;;;21.00;61.77;101422.03;5005679;28;20037;-73
2022/08/25 01:42:26;;;;;;;4.80;2.47;;;;;;;20.91;62.12;101420.66;5020686;28;20033;-74
2022/08/25 01:44:52;;;;;;;7.70;2.53;;;;;;;20.85;61.94;101424.13;5004203;28;20378;-73
2022/08/25 01:47:17;;;;;;;6.10;3.03;;;;;;;20.83;61.84;101422.72;5003901;28;20034;-74
2022/08/25 01:49:43;;;;;;;4.28;2.80;;;;;;;20.80;61.67;101422.13;4987393;28;20041;-74
2022/08/25 01:52:22;;;;;;;4.50;2.72;;;;;;;20.79;61.84;101425.78;5003806;28;20516;-74
2022/08/25 01:54:48;;;;;;;5.00;2.40;;;;;;;20.78;61.92;101421.50;4998944;28;20044;-74
2022/08/25 01:57:13;;;;;;;4.30;2.60;;;;;;;20.73;62.12;101423.97;5017258;28;20041;-72
2022/08/25 01:59:39;;;;;;;7.07;2.97;;;;;;;20.71;62.32;101428.63;4983163;28;20042;-74
2022/08/25 02:02:05;;;;;;;4.65;2.60;;;;;;;20.68;62.54;101431.69;5004409;28;20050;-73
2022/08/25 02:04:31;;;;;;;5.72;2.90;;;;;;;20.66;62.72;101430.28;5000560;28;20553;-74
2022/08/25 02:07:02;;;;;;;5.10;2.55;;;;;;;20.63;62.74;101430.69;5003125;28;20026;-74
2022/08/25 02:09:28;;;;;;;3.75;2.67;;;;;;;20.61;63.09;101430.91;5000405;28;20072;-73
2022/08/25 02:11:55;;;;;;;4.68;3.17;;;;;;;20.57;63.05;101427.03;5002955;28;20583;-75
2022/08/25 02:14:21;;;;;;;3.85;2.70;;;;;;;20.54;63.16;101420.34;5002915;28;20080;-75
2022/08/25 02:16:50;;;;;;;4.88;2.67;;;;;;;20.51;63.55;101423.41;5003601;28;20445;-74
2022/08/25 02:19:17;;;;;;;6.97;2.75;;;;;;;20.47;63.67;101424.00;5002947;28;20045;-73
2022/08/25 02:21:43;;;;;;;4.55;2.55;;;;;;;20.44;63.80;101430.50;5018919;28;20072;-74
2022/08/25 02:24:10;;;;;;;6.13;2.42;;;;;;;20.41;63.98;101423.00;5004313;28;20061;-74
2022/08/25 02:26:36;;;;;;;4.18;2.75;;;;;;;20.40;64.23;101426.69;5004640;28;20037;-74
2022/08/25 02:29:03;;;;;;;5.82;2.72;;;;;;;20.38;64.27;101418.97;5003872;28;20032;-74
2022/08/25 02:31:29;;;;;;;9.48;3.72;;;;;;;20.36;64.52;101418.38;5020785;28;20030;-74
2022/08/25 02:33:56;;;;;;;4.10;2.85;;;;;;;20.34;64.73;101420.41;5005416;28;20083;-74
2022/08/25 02:36:22;;;;;;;4.03;3.35;;;;;;;20.28;65.19;101421.22;5000978;28;20125;-73
2022/08/25 02:38:48;;;;;;;3.72;2.72;;;;;;;20.18;65.43;101426.09;5003287;28;20026;-74
2022/08/25 02:41:19;;;;;;;4.57;3.00;;;;;;;20.08;65.74;101423.88;5003782;28;20060;-74
2022/08/25 02:43:47;;;;;;;6.03;2.70;;;;;;;19.99;65.90;101425.09;5003126;28;20033;-73
2022/08/25 02:46:14;;;;;;;4.82;2.92;;;;;;;19.91;66.07;101415.59;4985605;28;20719;-74
2022/08/25 02:48:39;;;;;;;6.13;2.95;;;;;;;19.86;66.19;101420.66;5004245;28;20026;-74
2022/08/25 02:51:06;;;;;;;5.10;2.92;;;;;;;19.81;66.30;101410.72;5017998;28;20592;-74
2022/08/25 02:53:32;;;;;;;6.97;3.05;;;;;;;19.77;66.60;101421.84;4986694;28;20064;-74
2022/08/25 02:55:58;;;;;;;4.32;3.03;;;;;;;19.72;66.71;101421.63;5000529;28;20064;-73
2022/08/25 02:58:24;;;;;;;4.13;2.92;;;;;;;19.65;67.09;101416.38;5001733;28;20026;-74
2022/08/25 03:00:50;;;;;;;8.05;2.92;;;;;;;19.65;67.01;101414.53;5001685;28;20030;-74
2022/08/25 03:03:16;;;;;;;7.85;3.15;;;;;;;19.67;66.94;101405.66;5002951;28;20654;-74
2022/08/25 03:05:41;;;;;;;6.22;2.75;;;;;;;19.70;66.70;101406.03;5002865;28;20044;-75
2022/08/25 03:08:08;;;;;;;6.75;3.13;;;;;;;19.71;66.69;101399.75;5001306;28;20073;-74
2022/08/25 03:10:33;;;;;;;3.72;2.60;;;;;;;19.72;66.41;101397.94;5003747;28;20040;-72
2022/08/25 03:12:59;;;;;;;7.70;2.75;;;;;;;19.73;66.51;101389.88;5001402;28;20042;-73
2022/08/25 03:15:26;;;;;;;8.70;2.97;;;;;;;19.73;66.41;101389.06;5001356;28;20038;-75
2022/08/25 03:17:52;;;;;;;3.88;2.55;;;;;;;19.73;66.36;101386.44;5001040;28;20695;-73
2022/08/25 03:20:18;;;;;;;7.05;3.10;;;;;;;19.72;66.23;101385.66;5000014;28;20034;-73
2022/08/25 03:22:43;;;;;;;11.52;3.13;;;;;;;19.71;66.11;101383.19;5000569;28;20033;-74
2022/08/25 03:27:56;;;;;;;5.68;2.90;;;;;;;19.64;66.11;101383.16;4983718;28;20144;-74
2022/08/25 03:30:22;;;;;;;8.18;2.47;;;;;;;19.60;66.07;101380.13;5002668;28;20034;-75
2022/08/25 03:32:47;;;;;;;4.30;2.83;;;;;;;19.57;66.27;101377.91;5003700;28;20041;-75
2022/08/25 03:35:13;;;;;;;6.68;2.85;;;;;;;19.49;66.91;101382.56;5004086;28;20053;-73
2022/08/25 03:37:38;;;;;;;3.35;2.80;;;;;;;19.41;67.52;101379.09;5005842;28;20030;-73
2022/08/25 03:40:07;;;;;;;3.63;2.60;;;;;;;19.38;67.52;101383.94;5004139;28;20121;-73
2022/08/25 03:42:33;;;;;;;4.72;2.95;;;;;;;19.34;67.72;101382.72;5020522;28;20029;-73
2022/08/25 03:45:01;;;;;;;6.00;3.03;;;;;;;19.31;67.66;101383.13;5007383;28;20030;-73
2022/08/25 03:47:28;;;;;;;6.80;3.05;;;;;;;19.26;67.69;101381.09;5003140;28;20033;-74
2022/08/25 03:49:54;;;;;;;4.38;2.63;;;;;;;19.20;67.72;101377.44;5007322;28;20077;-74
2022/08/25 03:52:20;;;;;;;5.43;3.20;;;;;;;19.15;68.08;101365.91;5004053;28;20415;-73
2022/08/25 03:54:45;;;;;;;10.68;3.00;;;;;;;19.08;68.51;101362.47;5003904;28;20034;-73
2022/08/25 03:57:11;;;;;;;4.50;3.28;;;;;;;19.04;68.58;101364.66;5005157;28;20112;-74
2022/08/25 03:59:39;;;;;;;5.07;3.30;;;;;;;19.00;68.79;101364.25;5006586;28;20032;-73
2022/08/25 04:02:05;;;;;;;7.30;3.20;;;;;;;18.97;68.88;101351.53;5003793;28;20053;-73
2022/08/25 04:04:31;;;;;;;5.95;3.03;;;;;;;18.98;68.81;101354.97;5006777;28;20018;-73
2022/08/25 04:06:58;;;;;;;5.75;2.90;;;;;;;19.01;68.53;101351.94;5004944;28;20045;-74
2022/08/25 04:09:24;;;;;;;3.65;2.40;;;;;;;19.00;68.90;101345.06;5005843;28;20100;-73
2022/08/25 04:11:50;;;;;;;4.97;2.72;;;;;;;18.97;69.17;101351.53;5005494;28;20034;-74
2022/08/25 04:14:16;;;;;;;3.63;2.63;;;;;;;18.95;69.22;101347.47;5006963;28;20041;-74
2022/08/25 04:16:41;;;;;;;3.92;2.80;;;;;;;18.98;68.99;101357.59;5000994;28;20029;-74
2022/08/25 04:19:09;;;;;;;6.72;3.15;;;;;;;18.99;68.78;101352.13;5003208;28;20119;-73
2022/08/25 04:21:36;;;;;;;6.38;2.75;;;;;;;19.01;68.42;101354.56;5004913;28;20060;-74
2022/08/25 04:24:02;;;;;;;5.97;3.13;;;;;;;19.01;68.30;101360.63;5005589;28;20121;-74
2022/08/25 04:26:31;;;;;;;4.22;3.22;;;;;;;19.02;67.99;101359.63;5008384;28;20084;-73
2022/08/25 04:28:58;;;;;;;4.43;2.95;;;;;;;19.00;68.03;101351.13;5003516;28;20426;-74
2022/08/25 04:31:25;;;;;;;4.43;3.30;;;;;;;18.97;68.00;101354.16;4998430;28;20038;-74
2022/08/25 04:33:51;;;;;;;4.60;3.05;;;;;;;18.94;68.01;101348.47;5002263;28;20026;-73
2022/08/25 04:36:18;;;;;;;5.53;3.55;;;;;;;18.92;68.31;101355.75;4998983;28;20390;-74
2022/08/25 04:38:44;;;;;;;3.97;3.15;;;;;;;18.89;68.86;101354.31;4984911;28;20029;-72
2022/08/25 04:41:12;;;;;;;5.10;3.38;;;;;;;18.84;69.32;101365.44;5000399;28;20047;-74
2022/08/25 04:43:39;;;;;;;5.88;3.40;;;;;;;18.79;69.84;101356.50;5003564;28;20073;-73
2022/08/25 04:46:17;;;;;;;9.18;4.07;;;;;;;18.68;70.48;101363.09;5005393;28;20482;-74
2022/08/25 04:48:43;;;;;;;4.90;3.00;;;;;;;18.59;71.04;101362.47;5005499;28;20083;-73
2022/08/25 04:51:12;;;;;;;9.45;3.30;;;;;;;18.56;70.92;101369.94;5005383;28;20030;-72
2022/08/25 04:53:38;;;;;;;5.22;3.35;;;;;;;18.47;71.10;101364.03;5006411;28;20030;-73
2022/08/25 04:56:09;;;;;;;8.40;3.17;;;;;;;18.42;71.20;101355.91;5004325;28;20030;-73
2022/08/25 04:58:35;;;;;;;7.53;2.97;;;;;;;18.40;71.05;101355.31;5020707;28;20048;-74
2022/08/25 05:01:09;;;;;;;7.38;3.28;;;;;;;18.42;70.88;101353.28;5002683;28;20033;-74
2022/08/25 05:03:36;;;;;;;5.60;3.10;;;;;;;18.45;70.65;101353.72;5001415;28;20040;-74
2022/08/25 05:06:03;;;;;;;5.70;3.35;;;;;;;18.49;70.79;101352.31;5005237;28;20087;-74
2022/08/25 05:08:30;;;;;;;8.90;3.03;;;;;;;18.47;71.42;101345.66;5001700;28;20632;-74
2022/08/25 05:10:56;;;;;;;4.85;2.90;;;;;;;18.44;71.70;101351.28;5002620;28;20479;-74
2022/08/25 05:13:25;;;;;;;3.92;2.72;;;;;;;18.46;71.65;101349.28;5003199;28;20040;-74
2022/08/25 05:15:56;;;;;;;6.15;3.05;;;;;;;18.49;71.25;101348.88;5003891;28;20029;-72
2022/08/25 05:18:23;;;;;;;6.88;3.10;;;;;;;18.50;70.96;101342.66;5002221;28;20556;-74
2022/08/25 05:20:50;;;;;;;6.95;3.28;;;;;;;18.51;70.95;101346.88;5020751;28;20461;-73
2022/08/25 05:23:15;;;;;;;7.80;3.33;;;;;;;18.51;70.92;101340.81;5004065;28;20044;-73
2022/08/25 05:25:41;;;;;;;12.50;3.70;;;;;;;18.54;71.08;101336.00;5006873;28;20034;-74
2022/08/25 05:28:07;;;;;;;10.02;3.20;;;;;;;18.58;71.23;101336.41;5005065;28;20073;-74
2022/08/25 05:30:33;;;;;;;4.72;2.83;;;;;;;18.63;70.72;101344.53;5000428;28;20060;-74
2022/08/25 05:32:58;;;;;;;6.85;3.45;;;;;;;18.67;70.16;101343.13;5003924;28;20104;-74
2022/08/25 05:35:23;;;;;;;7.18;3.20;;;;;;;18.69;70.01;101343.72;5003530;28;20026;-74
2022/08/25 05:37:49;;;;;;;8.73;4.00;;;;;;;18.72;69.85;101343.31;5002128;28;20030;-74
2022/08/25 05:40:14;;;;;;;10.50;3.28;;;;;;;18.74;69.63;101341.34;5002983;28;20242;-74
2022/08/25 05:42:40;;;;;;;9.82;3.10;;;;;;;18.78;69.12;101345.19;5017669;28;20029;-74
2022/08/25 05:45:06;;;;;;;7.35;3.72;;;;;;;18.88;67.99;101329.06;5003218;28;20034;-74
2022/08/25 05:47:33;;;;;;;6.22;3.47;;;;;;;18.94;66.97;101330.91;5001474;28;20080;-74
2022/08/25 05:49:58;;;;;;;5.25;2.88;;;;;;;19.00;66.87;101335.34;5002767;28;20034;-74
2022/08/25 05:52:26;;;;;;;7.50;3.08;;;;;;;19.05;67.07;101334.75;5003783;28;20387;-74
2022/08/25 05:54:52;;;;;;;3.83;2.85;;;;;;;19.09;67.16;101333.34;4984803;28;20021;-74
2022/08/25 05:57:17;;;;;;;6.43;2.80;;;;;;;19.11;67.38;101338.41;4999597;28;20390;-74
2022/08/25 05:59:43;;;;;;;6.28;3.08;;;;;;;19.15;67.89;101342.25;4999013;28;20096;-74
2022/08/25 06:04:52;;;;;;;5.90;2.95;;;;;;;19.38;67.48;101349.78;5016367;28;20210;-74
2022/08/25 06:07:17;;;;;;;7.07;3.22;;;;;;;19.55;67.86;101351.00;5001203;28;20037;-74
2022/08/25 06:09:45;;;;;;;8.65;3.20;;;;;;;19.68;67.85;101339.66;5001537;28;20030;-74
2022/08/25 06:12:11;;;;;;;6.97;3.53;;;;;;;19.75;68.00;101335.25;4988533;28;20908;-75
2022/08/25 06:14:36;;;;;;;7.38;3.40;;;;;;;19.77;68.42;101337.66;5019157;28;20033;-74
2022/08/25 06:17:03;;;;;;;5.75;3.15;;;;;;;19.76;68.69;101336.03;5003650;28;20034;-74
2022/08/25 06:19:29;;;;;;;8.07;3.33;;;;;;;19.79;68.85;101338.28;5002521;28;20034;-74
2022/08/25 06:21:56;;;;;;;6.65;3.20;;;;;;;19.83;68.16;101340.31;5003666;28;20703;-74
2022/08/25 06:24:24;;;;;;;6.60;3.38;;;;;;;19.87;67.61;101345.94;5001104;28;20046;-74
2022/08/25 06:26:50;;;;;;;8.25;4.15;;;;;;;19.98;67.66;101349.78;5002677;28;20041;-74
2022/08/25 06:29:16;;;;;;;7.45;3.50;;;;;;;20.05;67.50;101355.84;5019071;28;20037;-74
2022/08/25 06:31:42;;;;;;;6.28;3.25;;;;;;;20.15;66.40;101347.53;5004484;28;20080;-75
2022/08/25 06:34:08;;;;;;;8.50;3.33;;;;;;;20.26;66.21;101353.97;5003123;28;20034;-74
2022/08/25 06:36:33;;;;;;;6.82;3.20;;;;;;;20.35;66.82;101345.66;5003000;28;20406;-74
2022/08/25 06:38:58;;;;;;;8.77;3.58;;;;;;;20.41;67.31;101342.19;5002363;28;20034;-74
2022/08/25 06:41:24;;;;;;;6.55;3.00;;;;;;;20.49;66.71;101343.75;5001650;28;20034;-74
2022/08/25 06:43:50;;;;;;;6.65;3.00;;;;;;;20.58;66.45;101342.50;5002697;28;20045;-74
2022/08/25 06:46:22;;;;;;;7.60;3.35;;;;;;;20.81;65.60;101351.75;5002275;28;20038;-74
2022/08/25 06:48:48;;;;;;;7.20;3.90;;;;;;;21.14;61.57;101345.50;5000371;28;20030;-75
2022/08/25 06:51:17;;;;;;;8.40;3.53;;;;;;;21.40;61.49;101344.53;5003614;28;20057;-76
2022/08/25 06:53:43;;;;;;;8.85;3.25;;;;;;;21.55;61.17;101352.16;5002672;28;20061;-75
2022/08/25 06:56:09;;;;;;;5.90;3.80;;;;;;;21.80;59.67;101348.69;5017028;28;20072;-75
2022/08/25 06:58:36;;;;;;;9.90;4.05;;;;;;;21.99;59.48;101346.88;5002882;28;20194;-74
2022/08/25 07:01:14;;;;;;;5.93;3.03;;;;;;;22.37;59.13;101351.16;5019877;28;20616;-76
2022/08/25 07:03:40;;;;;;;7.63;3.00;;;;;;;22.89;56.89;101352.31;5004326;28;20042;-75
2022/08/25 07:06:06;;;;;;;9.95;4.50;;;;;;;23.47;54.86;101344.75;5002946;28;20042;-75
2022/08/25 07:08:32;;;;;;;7.25;3.35;;;;;;;24.14;52.96;101339.13;5006438;28;20556;-77
2022/08/25 07:11:06;;;;;;;6.78;3.35;;;;;;;24.79;51.64;101332.72;5006334;28;20068;-73
2022/08/25 07:13:32;;;;;;;4.60;2.92;;;;;;;25.59;50.71;101330.84;5007070;28;20048;-73
2022/08/25 07:15:57;;;;;;;7.75;3.33;;;;;;;26.02;48.03;101331.19;5006379;28;20034;-75
2022/08/25 07:18:23;;;;;;;7.78;3.40;;;;;;;26.30;46.86;101329.41;5005144;28;20041;-75
2022/08/25 07:20:50;;;;;;;4.93;2.85;;;;;;;26.86;46.76;101321.19;5007848;28;20037;-74
2022/08/25 07:23:16;;;;;;;8.38;2.90;;;;;;;27.15;46.21;101319.06;4990050;28;20042;-75
2022/08/25 07:25:42;;;;;;;5.78;3.38;;;;;;;27.53;45.83;101317.22;5006981;28;20041;-76
2022/08/25 07:28:07;;;;;;;6.10;3.25;;;;;;;27.80;44.21;101324.28;5008821;28;20038;-73
2022/08/25 07:30:33;;;;;;;5.05;3.05;;;;;;;27.93;43.10;101315.84;5007330;28;20045;-75
2022/08/25 07:32:58;;;;;;;10.80;2.97;;;;;;;28.32;44.06;101310.13;4990081;28;20026;-76
2022/08/25 07:35:26;;;;;;;6.45;3.78;;;;;;;28.69;43.71;101309.16;5005588;28;20136;-75
2022/08/25 07:37:55;;;;;;;5.38;2.58;;;;;;;28.88;42.19;101301.44;5007252;28;20033;-75
2022/08/25 07:40:30;;;;;;;6.72;2.92;;;;;;;28.65;41.07;101316.06;5007132;28;20034;-76
2022/08/25 07:43:00;;;;;;;10.18;2.67;;;;;;;28.96;41.47;101313.44;5007676;28;20038;-74
2022/08/25 07:45:29;;;;;;;6.53;2.50;;;;;;;29.12;40.31;101312.34;5005589;28;20345;-76
2022/08/25 07:48:04;;;;;;;5.82;3.67;;;;;;;28.84;41.06;101316.34;5006178;28;20490;-75
2022/08/25 07:50:30;;;;;;;6.13;2.63;;;;;;;29.44;40.44;101313.91;5005295;28;20041;-75
2022/08/25 07:52:57;;;;;;;5.97;3.15;;;;;;;29.81;40.64;101318.91;4991154;28;20570;-76
2022/08/25 07:55:24;;;;;;;4.97;2.70;;;;;;;30.27;39.75;101316.03;5003442;28;20499;-74
2022/08/25 07:57:51;;;;;;;6.40;2.90;;;;;;;30.03;38.93;101304.41;5006961;28;20537;-77
2022/08/25 08:00:18;;;;;;;6.65;3.25;;;;;;;30.49;38.53;101317.53;5008685;28;20052;-76
2022/08/25 08:02:43;;;;;;;7.93;3.47;;;;;;;30.30;38.30;101317.34;4990856;28;20041;-76
2022/08/25 08:05:10;;;;;;;5.57;2.72;;;;;;;30.20;38.06;101312.88;5007481;28;20038;-76
2022/08/25 08:07:36;;;;;;;7.43;2.67;;;;;;;30.51;38.01;101309.25;5006635;28;20053;-78
2022/08/25 08:10:04;;;;;;;3.28;2.50;;;;;;;30.34;38.10;101312.28;5007037;28;20037;-76
2022/08/25 08:12:29;;;;;;;5.07;2.97;;;;;;;30.82;37.85;101310.59;5007907;28;20596;-76
2022/08/25 08:14:54;;;;;;;10.75;3.63;;;;;;;30.86;37.22;101305.50;5008057;28;20053;-74
2022/08/25 08:17:20;;;;;;;10.25;3.42;;;;;;;30.85;36.20;101304.72;5006027;28;20034;-76
2022/08/25 08:19:45;;;;;;;12.77;3.85;;;;;;;31.11;36.89;101293.78;5006401;28;20058;-76
2022/08/25 08:22:14;;;;;;;6.18;2.70;;;;;;;30.99;36.29;101286.13;5006696;28;20083;-75
2022/08/25 08:24:42;;;;;;;7.60;2.75;;;;;;;31.43;36.71;101290.50;5007022;28;22798;-74
2022/08/25 08:27:09;;;;;;;7.22;3.10;;;;;;;31.34;36.38;101288.72;5019358;28;20121;-77
2022/08/25 08:29:35;;;;;;;7.10;3.08;;;;;;;31.53;37.17;101280.78;5004009;28;20037;-74
2022/08/25 08:32:02;;;;;;;11.80;2.92;;;;;;;31.74;35.58;101278.66;5003893;28;20049;-78
2022/08/25 08:34:29;;;;;;;6.97;2.80;;;;;;;31.65;35.65;101273.16;5006131;28;20034;-74
2022/08/25 08:36:56;;;;;;;6.28;3.08;;;;;;;31.70;36.41;101265.03;5022808;28;20547;-76
2022/08/25 08:39:21;;;;;;;10.25;3.53;;;;;;;31.70;35.73;101270.38;5006441;28;20032;-75
2022/08/25 08:42:31;;;;;;;5.95;3.00;;;;;;;32.07;37.83;101273.44;5006186;28;20038;-76
2022/08/25 08:44:56;;;;;;;7.28;3.22;;;;;;;32.31;36.13;101276.84;5005713;28;20030;-75
2022/08/25 08:47:56;;;;;;;7.28;3.25;;;;;;;32.45;35.18;101271.50;5005673;28;20478;-77
2022/08/25 08:50:50;;;;;;;12.05;2.95;;;;;;;32.51;35.00;101264.19;5004767;28;20119;-75
2022/08/25 08:53:30;;;;;;;4.50;2.60;;;;;;;32.58;34.63;101265.44;5019649;28;20402;-75
2022/08/25 08:56:07;;;;;;;7.55;2.75;;;;;;;32.83;34.23;101260.72;5004415;28;20622;-76
2022/08/25 08:58:44;;;;;;;9.63;3.40;;;;;;;32.42;33.98;101269.44;5002665;28;20041;-76
2022/08/25 09:01:26;;;;;;;6.47;2.92;;;;;;;32.66;35.15;101260.47;5002681;28;20077;-76
2022/08/25 09:04:01;;;;;;;5.73;3.27;;;;;;;32.48;33.43;101262.09;5004168;28;20057;-77
2022/08/25 09:06:35;;;;;;;7.80;2.65;;;;;;;31.87;34.10;101256.50;4987922;28;20194;-75
2022/08/25 09:09:04;;;;;;;5.88;3.03;;;;;;;31.79;34.59;101257.16;5004370;28;20038;-75
2022/08/25 09:11:38;;;;;;;3.90;2.85;;;;;;;31.38;34.13;101252.25;5002438;28;20050;-77
2022/08/25 09:14:44;;;;;;;7.65;2.45;;;;;;;31.70;34.46;101256.19;5005016;28;20121;-77
2022/08/25 09:17:18;;;;;;;7.82;2.83;;;;;;;31.82;33.88;101261.94;5006789;28;20037;-75
2022/08/25 09:20:16;;;;;;;5.43;2.35;;;;;;;32.49;33.82;101256.41;5001186;28;20026;-76
2022/08/25 09:22:41;;;;;;;8.10;2.60;;;;;;;32.64;34.08;101249.25;5003501;28;20140;-77
2022/08/25 09:25:18;;;;;;;5.55;2.83;;;;;;;32.31;32.83;101252.69;5003629;28;20044;-77
2022/08/25 09:28:15;;;;;;;8.35;2.67;;;;;;;32.43;32.66;101243.41;5002986;28;20651;-77
2022/08/25 09:30:58;;;;;;;9.00;3.67;;;;;;;32.58;33.99;101248.53;4984148;28;20121;-74
2022/08/25 09:33:26;;;;;;;6.07;2.80;;;;;;;32.37;32.35;101242.69;5004538;28;20927;-75
2022/08/25 09:35:53;;;;;;;7.03;2.90;;;;;;;32.45;32.35;101247.38;4987803;28;20995;-78
2022/08/25 09:38:19;;;;;;;6.75;2.60;;;;;;;32.15;33.01;101238.69;5003331;28;20034;-76
2022/08/25 09:40:47;;;;;;;13.80;3.65;;;;;;;32.29;33.99;101240.66;5005002;28;20065;-75
2022/08/25 09:43:32;;;;;;;7.20;3.17;;;;;;;32.16;33.35;101242.19;5004326;28;20033;-76
2022/08/25 09:46:10;;;;;;;6.07;2.58;;;;;;;32.35;33.68;101231.44;5004590;28;20038;-76
2022/08/25 09:48:44;;;;;;;4.93;2.55;;;;;;;32.42;34.07;101239.09;5004225;28;20484;-74
2022/08/25 09:51:22;;;;;;;5.57;3.20;;;;;;;32.67;33.53;101235.25;4986879;28;20037;-76
2022/08/25 09:53:58;;;;;;;7.43;2.67;;;;;;;32.49;33.50;101237.63;5015659;28;20030;-78
2022/08/25 09:56:27;;;;;;;5.40;2.67;;;;;;;32.69;34.61;101241.91;5000927;28;20669;-78
2022/08/25 09:58:56;;;;;;;5.50;2.85;;;;;;;32.74;33.34;101228.41;5003964;28;20040;-75
2022/08/25 10:01:23;;;;;;;5.43;2.92;;;;;;;32.98;34.25;101222.06;5019193;28;20440;-75
2022/08/25 10:04:02;;;;;;;7.00;3.38;;;;;;;33.02;32.60;101220.41;5018563;28;20034;-77
2022/08/25 10:06:33;;;;;;;5.03;2.80;;;;;;;32.97;33.06;101225.84;5002409;28;20026;-76
2022/08/25 10:09:05;;;;;;;5.95;2.83;;;;;;;33.31;32.21;101222.00;5001744;28;20064;-76
2022/08/25 10:11:38;;;;;;;5.78;2.88;;;;;;;33.24;33.26;101222.41;5000698;28;20038;-76
2022/08/25 10:14:35;;;;;;;6.20;3.20;;;;;;;33.18;32.99;101218.22;5002598;28;20482;-76
2022/08/25 10:17:23;;;;;;;7.50;2.58;;;;;;;33.08;33.25;101213.03;5001593;28;20034;-76
2022/08/25 10:20:10;;;;;;;7.55;2.80;;;;;;;32.94;31.90;101208.44;4999884;28;20766;-77
2022/08/25 10:22:41;;;;;;;8.07;2.83;;;;;;;32.83;31.71;101211.59;5001474;28;20030;-74
2022/08/25 10:25:09;;;;;;;3.70;2.90;;;;;;;32.66;31.68;101204.91;5004301;28;20056;-76
2022/08/25 10:27:57;;;;;;;9.00;3.65;;;;;;;32.84;32.49;101191.72;5001906;28;20037;-76
2022/08/25 10:31:04;;;;;;;13.10;2.53;;;;;;;33.20;32.24;101189.16;5000949;28;20038;-75
2022/08/25 10:33:57;;;;;;;4.85;2.65;;;;;;;33.24;31.35;101187.47;4998265;28;20049;-74
2022/08/25 10:36:41;;;;;;;8.32;2.60;;;;;;;33.01;31.68;101178.50;4999265;28;20029;-76
2022/08/25 10:39:16;;;;;;;6.60;2.30;;;;;;;33.19;30.95;101178.72;5001933;28;20397;-76
2022/08/25 10:42:00;;;;;;;5.97;2.40;;;;;;;33.16;31.29;101180.13;5003317;28;20432;-77
2022/08/25 10:47:43;;;;;;;6.38;2.03;;;;;;;32.97;31.36;101162.19;5007305;28;20124;-75
2022/08/25 10:50:12;;;;;;;6.13;2.47;;;;;;;32.92;30.41;101164.19;5023503;28;20049;-77
2022/08/25 10:52:59;;;;;;;6.03;2.25;;;;;;;33.10;30.64;101165.97;5004900;28;20034;-75
2022/08/25 10:55:46;;;;;;;5.25;2.30;;;;;;;33.31;31.15;101161.00;4992448;28;20025;-77
2022/08/25 10:58:23;;;;;;;6.28;2.28;;;;;;;33.42;30.57;101150.84;5005722;28;20018;-75
2022/08/25 11:01:24;;;;;;;5.13;2.58;;;;;;;33.41;32.07;101151.13;5004395;28;20065;-77
2022/08/25 11:03:58;;;;;;;5.45;2.17;;;;;;;33.51;31.45;101153.59;5004475;28;20501;-75
2022/08/25 11:06:42;;;;;;;3.25;2.10;;;;;;;33.52;31.86;101147.91;5007888;28;20034;-76
2022/08/25 11:09:14;;;;;;;3.17;2.50;;;;;;;33.47;30.84;101147.22;5010197;28;20030;-75
2022/08/25 11:11:49;;;;;;;6.67;2.47;;;;;;;33.61;30.87;101148.00;5006201;28;20485;-76
2022/08/25 11:14:21;;;;;;;4.43;2.20;;;;;;;33.56;29.79;101140.03;5008850;28;20042;-76
2022/08/25 11:16:57;;;;;;;4.07;2.40;;;;;;;33.34;30.34;101143.47;5024685;28;20390;-76
2022/08/25 11:19:37;;;;;;;5.60;2.35;;;;;;;33.49;30.69;101139.66;5006411;28;20486;-77
2022/08/25 11:22:05;;;;;;;3.67;2.67;;;;;;;33.49;30.30;101131.59;5004278;28;20402;-75
2022/08/25 11:24:43;;;;;;;4.75;2.53;;;;;;;33.28;30.70;101131.25;5008198;28;20133;-76
2022/08/25 11:27:17;;;;;;;6.00;2.05;;;;;;;33.45;32.08;101134.09;5006382;28;20030;-77
2022/08/25 11:29:50;;;;;;;3.83;2.08;;;;;;;33.56;30.38;101134.66;5005291;28;20037;-75
2022/08/25 11:32:19;;;;;;;6.80;2.20;;;;;;;33.46;30.96;101135.69;5011343;28;20038;-77
2022/08/25 11:34:45;;;;;;;5.00;2.40;;;;;;;33.37;31.57;101126.75;5006893;28;20076;-77
2022/08/25 11:37:26;;;;;;;6.38;2.42;;;;;;;33.59;32.42;101127.88;5009106;28;20026;-77
2022/08/25 11:40:17;;;;;;;7.38;2.30;;;;;;;33.65;31.22;101115.97;5005530;28;20041;-76
2022/08/25 11:43:08;;;;;;;5.85;2.25;;;;;;;33.68;30.73;101110.78;5001285;28;20042;-75
2022/08/25 11:46:13;;;;;;;6.63;2.38;;;;;;;34.00;30.49;101117.00;5003540;28;20030;-77
2022/08/25 11:49:11;;;;;;;3.88;2.33;;;;;;;33.90;29.72;101107.28;4996302;28;20041;-75